sensor_id;sensor_type;location;lat;lon;timestamp;P1;durP1;ratioP1;P2;durP2;ratioP2
52608;SDS011;38503;48.544;12.142;2022-09-09T00:00:45;6.53;;;5.40;;
52608;SDS011;38503;48.544;12.142;2022-09-09T00:03:25;5.37;;;4.87;;
52608;SDS011;38503;48.544;12.142;2022-09-09T00:06:10;7.87;;;5.73;;
52608;SDS011;38503;48.544;12.142;2022-09-09T00:11:36;6.90;;;5.00;;
52608;SDS011;38503;48.544;12.142;2022-09-09T00:17:17;6.87;;;5.57;;
52608;SDS011;38503;48.544;12.142;2022-09-09T00:19:54;6.47;;;5.33;;
52608;SDS011;38503;48.544;12.142;2022-09-09T00:22:28;6.70;;;6.07;;
52608;SDS011;38503;48.544;12.142;2022-09-09T00:25:09;7.77;;;5.50;;
52608;SDS011;38503;48.544;12.142;2022-09-09T00:30:14;6.30;;;5.70;;
52608;SDS011;38503;48.544;12.142;2022-09-09T00:32:46;6.27;;;5.67;;
52608;SDS011;38503;48.544;12.142;2022-09-09T00:37:47;6.03;;;5.43;;
52608;SDS011;38503;48.544;12.142;2022-09-09T00:40:23;7.00;;;6.13;;
52608;SDS011;38503;48.544;12.142;2022-09-09T00:51:44;5.77;;;5.27;;
52608;SDS011;38503;48.544;12.142;2022-09-09T00:54:37;6.43;;;5.80;;
52608;SDS011;38503;48.544;12.142;2022-09-09T01:00:00;7.30;;;5.47;;
52608;SDS011;38503;48.544;12.142;2022-09-09T01:05:34;5.60;;;4.80;;
52608;SDS011;38503;48.544;12.142;2022-09-09T01:08:16;5.50;;;4.93;;
52608;SDS011;38503;48.544;12.142;2022-09-09T01:11:21;5.30;;;4.80;;
52608;SDS011;38503;48.544;12.142;2022-09-09T01:14:10;6.87;;;4.40;;
52608;SDS011;38503;48.544;12.142;2022-09-09T01:17:13;5.43;;;4.87;;
52608;SDS011;38503;48.544;12.142;2022-09-09T01:22:22;5.73;;;4.93;;
52608;SDS011;38503;48.544;12.142;2022-09-09T01:25:11;6.87;;;4.70;;
52608;SDS011;38503;48.544;12.142;2022-09-09T01:27:48;5.20;;;4.70;;
52608;SDS011;38503;48.544;12.142;2022-09-09T01:30:17;4.90;;;4.47;;
52608;SDS011;38503;48.544;12.142;2022-09-09T01:32:54;5.67;;;5.03;;
52608;SDS011;38503;48.544;12.142;2022-09-09T01:35:29;5.87;;;4.23;;
52608;SDS011;38503;48.544;12.142;2022-09-09T01:38:09;5.73;;;4.20;;
52608;SDS011;38503;48.544;12.142;2022-09-09T01:40:36;6.70;;;4.67;;
52608;SDS011;38503;48.544;12.142;2022-09-09T01:43:03;5.47;;;4.27;;
52608;SDS011;38503;48.544;12.142;2022-09-09T01:45:31;6.00;;;4.37;;
52608;SDS011;38503;48.544;12.142;2022-09-09T01:47:58;6.67;;;4.50;;
52608;SDS011;38503;48.544;12.142;2022-09-09T01:50:26;5.20;;;4.20;;
52608;SDS011;38503;48.544;12.142;2022-09-09T01:52:53;4.63;;;4.07;;
52608;SDS011;38503;48.544;12.142;2022-09-09T01:55:28;4.43;;;4.03;;
52608;SDS011;38503;48.544;12.142;2022-09-09T02:00:39;4.37;;;3.97;;
52608;SDS011;38503;48.544;12.142;2022-09-09T02:08:48;4.73;;;4.23;;
52608;SDS011;38503;48.544;12.142;2022-09-09T02:11:25;7.97;;;4.40;;
52608;SDS011;38503;48.544;12.142;2022-09-09T02:13:57;4.80;;;4.40;;
52608;SDS011;38503;48.544;12.142;2022-09-09T02:19:11;5.40;;;4.87;;
52608;SDS011;38503;48.544;12.142;2022-09-09T02:21:40;5.80;;;5.30;;
52608;SDS011;38503;48.544;12.142;2022-09-09T02:24:11;6.83;;;6.23;;
52608;SDS011;38503;48.544;12.142;2022-09-09T02:26:42;6.40;;;5.80;;
52608;SDS011;38503;48.544;12.142;2022-09-09T02:29:13;6.40;;;5.80;;
52608;SDS011;38503;48.544;12.142;2022-09-09T02:31:44;5.83;;;5.33;;
52608;SDS011;38503;48.544;12.142;2022-09-09T02:34:13;7.07;;;4.93;;
52608;SDS011;38503;48.544;12.142;2022-09-09T02:36:45;8.00;;;5.00;;
52608;SDS011;38503;48.544;12.142;2022-09-09T02:39:13;5.87;;;4.80;;
52608;SDS011;38503;48.544;12.142;2022-09-09T02:41:41;8.10;;;5.60;;
52608;SDS011;38503;48.544;12.142;2022-09-09T02:44:11;5.93;;;5.33;;
52608;SDS011;38503;48.544;12.142;2022-09-09T02:49:43;6.80;;;5.17;;
52608;SDS011;38503;48.544;12.142;2022-09-09T02:52:20;5.17;;;4.50;;
52608;SDS011;38503;48.544;12.142;2022-09-09T02:55:07;5.57;;;4.90;;
52608;SDS011;38503;48.544;12.142;2022-09-09T02:57:42;5.70;;;5.10;;
52608;SDS011;38503;48.544;12.142;2022-09-09T03:00:13;5.23;;;4.70;;
52608;SDS011;38503;48.544;12.142;2022-09-09T03:02:40;5.90;;;5.40;;
52608;SDS011;38503;48.544;12.142;2022-09-09T03:05:08;7.17;;;4.80;;
52608;SDS011;38503;48.544;12.142;2022-09-09T03:07:35;8.00;;;5.47;;
52608;SDS011;38503;48.544;12.142;2022-09-09T03:10:02;6.53;;;5.37;;
52608;SDS011;38503;48.544;12.142;2022-09-09T03:12:30;5.70;;;5.20;;
52608;SDS011;38503;48.544;12.142;2022-09-09T03:14:57;7.33;;;5.20;;
52608;SDS011;38503;48.544;12.142;2022-09-09T03:17:24;7.93;;;5.00;;
52608;SDS011;38503;48.544;12.142;2022-09-09T03:19:50;6.57;;;5.57;;
52608;SDS011;38503;48.544;12.142;2022-09-09T03:22:24;6.10;;;5.53;;
52608;SDS011;38503;48.544;12.142;2022-09-09T03:24:51;6.30;;;5.70;;
52608;SDS011;38503;48.544;12.142;2022-09-09T03:27:18;6.20;;;5.60;;
52608;SDS011;38503;48.544;12.142;2022-09-09T03:29:45;5.83;;;5.30;;
52608;SDS011;38503;48.544;12.142;2022-09-09T03:32:13;8.50;;;5.90;;
52608;SDS011;38503;48.544;12.142;2022-09-09T03:34:41;6.20;;;5.60;;
52608;SDS011;38503;48.544;12.142;2022-09-09T03:37:08;6.63;;;4.73;;
52608;SDS011;38503;48.544;12.142;2022-09-09T03:39:36;4.40;;;4.00;;
52608;SDS011;38503;48.544;12.142;2022-09-09T03:42:02;4.50;;;4.10;;
52608;SDS011;38503;48.544;12.142;2022-09-09T03:44:30;6.93;;;4.33;;
52608;SDS011;38503;48.544;12.142;2022-09-09T03:46:57;4.77;;;4.27;;
52608;SDS011;38503;48.544;12.142;2022-09-09T03:49:26;5.77;;;4.30;;
52608;SDS011;38503;48.544;12.142;2022-09-09T03:51:56;4.93;;;4.50;;
52608;SDS011;38503;48.544;12.142;2022-09-09T03:54:25;5.27;;;4.70;;
52608;SDS011;38503;48.544;12.142;2022-09-09T03:56:52;4.73;;;4.30;;
52608;SDS011;38503;48.544;12.142;2022-09-09T03:59:19;4.77;;;4.13;;
52608;SDS011;38503;48.544;12.142;2022-09-09T04:01:47;6.10;;;4.43;;
52608;SDS011;38503;48.544;12.142;2022-09-09T04:04:14;6.20;;;5.00;;
52608;SDS011;38503;48.544;12.142;2022-09-09T04:06:41;5.43;;;4.60;;
52608;SDS011;38503;48.544;12.142;2022-09-09T04:09:07;6.30;;;5.10;;
52608;SDS011;38503;48.544;12.142;2022-09-09T04:11:34;5.33;;;4.53;;
52608;SDS011;38503;48.544;12.142;2022-09-09T04:14:01;7.90;;;5.60;;
52608;SDS011;38503;48.544;12.142;2022-09-09T04:16:28;8.00;;;5.40;;
52608;SDS011;38503;48.544;12.142;2022-09-09T04:18:55;10.03;;;5.80;;
52608;SDS011;38503;48.544;12.142;2022-09-09T04:21:22;5.97;;;5.43;;
52608;SDS011;38503;48.544;12.142;2022-09-09T04:23:49;8.00;;;6.07;;
52608;SDS011;38503;48.544;12.142;2022-09-09T04:26:16;6.43;;;5.30;;
52608;SDS011;38503;48.544;12.142;2022-09-09T04:28:43;6.17;;;5.30;;
52608;SDS011;38503;48.544;12.142;2022-09-09T04:31:10;7.17;;;5.20;;
52608;SDS011;38503;48.544;12.142;2022-09-09T04:33:45;6.50;;;5.33;;
52608;SDS011;38503;48.544;12.142;2022-09-09T04:36:12;6.60;;;5.50;;
52608;SDS011;38503;48.544;12.142;2022-09-09T04:38:39;6.70;;;6.03;;
52608;SDS011;38503;48.544;12.142;2022-09-09T04:41:06;7.83;;;5.97;;
52608;SDS011;38503;48.544;12.142;2022-09-09T04:43:37;6.60;;;6.00;;
52608;SDS011;38503;48.544;12.142;2022-09-09T04:46:05;7.03;;;6.43;;
52608;SDS011;38503;48.544;12.142;2022-09-09T04:48:32;6.87;;;6.20;;
52608;SDS011;38503;48.544;12.142;2022-09-09T04:51:03;7.33;;;5.60;;
52608;SDS011;38503;48.544;12.142;2022-09-09T04:53:31;7.83;;;6.30;;
52608;SDS011;38503;48.544;12.142;2022-09-09T04:56:10;8.43;;;6.77;;
52608;SDS011;38503;48.544;12.142;2022-09-09T04:58:39;9.93;;;6.83;;
52608;SDS011;38503;48.544;12.142;2022-09-09T05:01:11;9.30;;;7.47;;
52608;SDS011;38503;48.544;12.142;2022-09-09T05:03:39;18.67;;;13.23;;
52608;SDS011;38503;48.544;12.142;2022-09-09T05:06:07;13.17;;;7.30;;
52608;SDS011;38503;48.544;12.142;2022-09-09T05:08:37;9.53;;;6.73;;
52608;SDS011;38503;48.544;12.142;2022-09-09T05:13:45;11.13;;;8.47;;
52608;SDS011;38503;48.544;12.142;2022-09-09T05:16:13;12.13;;;7.53;;
52608;SDS011;38503;48.544;12.142;2022-09-09T05:18:41;9.87;;;7.27;;
52608;SDS011;38503;48.544;12.142;2022-09-09T05:21:12;9.93;;;8.27;;
52608;SDS011;38503;48.544;12.142;2022-09-09T05:23:41;9.53;;;7.40;;
52608;SDS011;38503;48.544;12.142;2022-09-09T05:26:18;27.37;;;24.57;;
52608;SDS011;38503;48.544;12.142;2022-09-09T05:28:46;17.00;;;12.73;;
52608;SDS011;38503;48.544;12.142;2022-09-09T05:31:14;14.97;;;7.83;;
52608;SDS011;38503;48.544;12.142;2022-09-09T05:33:43;9.20;;;7.23;;
52608;SDS011;38503;48.544;12.142;2022-09-09T05:36:13;9.63;;;7.07;;
52608;SDS011;38503;48.544;12.142;2022-09-09T05:38:47;11.63;;;6.70;;
52608;SDS011;38503;48.544;12.142;2022-09-09T05:41:15;9.57;;;6.07;;
52608;SDS011;38503;48.544;12.142;2022-09-09T05:43:43;8.70;;;6.33;;
52608;SDS011;38503;48.544;12.142;2022-09-09T05:46:12;6.83;;;6.23;;
52608;SDS011;38503;48.544;12.142;2022-09-09T05:48:47;6.60;;;5.97;;
52608;SDS011;38503;48.544;12.142;2022-09-09T05:51:20;7.10;;;6.40;;
52608;SDS011;38503;48.544;12.142;2022-09-09T05:53:50;6.20;;;5.23;;
52608;SDS011;38503;48.544;12.142;2022-09-09T05:56:21;5.60;;;5.00;;
52608;SDS011;38503;48.544;12.142;2022-09-09T05:58:51;6.17;;;5.50;;
52608;SDS011;38503;48.544;12.142;2022-09-09T06:01:28;8.53;;;6.50;;
52608;SDS011;38503;48.544;12.142;2022-09-09T06:03:58;6.60;;;5.90;;
52608;SDS011;38503;48.544;12.142;2022-09-09T06:06:26;9.67;;;5.63;;
52608;SDS011;38503;48.544;12.142;2022-09-09T06:09:03;8.07;;;5.80;;
52608;SDS011;38503;48.544;12.142;2022-09-09T06:11:33;5.53;;;5.03;;
52608;SDS011;38503;48.544;12.142;2022-09-09T06:14:02;8.07;;;5.60;;
52608;SDS011;38503;48.544;12.142;2022-09-09T06:16:29;5.77;;;5.17;;
52608;SDS011;38503;48.544;12.142;2022-09-09T06:18:59;7.97;;;5.80;;
52608;SDS011;38503;48.544;12.142;2022-09-09T06:21:27;6.27;;;5.43;;
52608;SDS011;38503;48.544;12.142;2022-09-09T06:23:56;6.50;;;5.73;;
52608;SDS011;38503;48.544;12.142;2022-09-09T06:26:30;7.00;;;5.87;;
52608;SDS011;38503;48.544;12.142;2022-09-09T06:28:59;7.50;;;6.70;;
52608;SDS011;38503;48.544;12.142;2022-09-09T06:31:27;9.47;;;8.20;;
52608;SDS011;38503;48.544;12.142;2022-09-09T06:33:57;14.40;;;12.50;;
52608;SDS011;38503;48.544;12.142;2022-09-09T06:36:25;10.23;;;7.67;;
52608;SDS011;38503;48.544;12.142;2022-09-09T06:38:53;13.27;;;8.63;;
52608;SDS011;38503;48.544;12.142;2022-09-09T06:41:21;15.47;;;9.83;;
52608;SDS011;38503;48.544;12.142;2022-09-09T06:43:49;12.37;;;9.43;;
52608;SDS011;38503;48.544;12.142;2022-09-09T06:46:17;11.03;;;9.17;;
52608;SDS011;38503;48.544;12.142;2022-09-09T06:48:54;11.13;;;8.63;;
52608;SDS011;38503;48.544;12.142;2022-09-09T06:51:24;9.40;;;8.40;;
52608;SDS011;38503;48.544;12.142;2022-09-09T06:53:53;9.53;;;8.13;;
52608;SDS011;38503;48.544;12.142;2022-09-09T06:56:29;10.10;;;8.57;;
52608;SDS011;38503;48.544;12.142;2022-09-09T06:59:04;10.07;;;8.57;;
52608;SDS011;38503;48.544;12.142;2022-09-09T07:01:38;9.67;;;8.60;;
52608;SDS011;38503;48.544;12.142;2022-09-09T07:04:07;9.47;;;8.43;;
52608;SDS011;38503;48.544;12.142;2022-09-09T07:06:36;11.23;;;8.90;;
52608;SDS011;38503;48.544;12.142;2022-09-09T07:09:05;10.37;;;9.13;;
52608;SDS011;38503;48.544;12.142;2022-09-09T07:11:41;10.80;;;8.97;;
52608;SDS011;38503;48.544;12.142;2022-09-09T07:14:09;11.77;;;10.03;;
52608;SDS011;38503;48.544;12.142;2022-09-09T07:16:40;12.87;;;10.50;;
52608;SDS011;38503;48.544;12.142;2022-09-09T07:19:08;10.13;;;9.00;;
52608;SDS011;38503;48.544;12.142;2022-09-09T07:21:35;15.57;;;13.40;;
52608;SDS011;38503;48.544;12.142;2022-09-09T07:24:02;9.50;;;8.50;;
52608;SDS011;38503;48.544;12.142;2022-09-09T07:26:34;10.47;;;8.50;;
52608;SDS011;38503;48.544;12.142;2022-09-09T07:29:01;8.80;;;7.90;;
52608;SDS011;38503;48.544;12.142;2022-09-09T07:31:29;11.33;;;7.53;;
52608;SDS011;38503;48.544;12.142;2022-09-09T07:34:00;7.87;;;7.07;;
52608;SDS011;38503;48.544;12.142;2022-09-09T07:36:29;7.80;;;6.83;;
52608;SDS011;38503;48.544;12.142;2022-09-09T07:41:51;6.47;;;5.87;;
52608;SDS011;38503;48.544;12.142;2022-09-09T07:44:21;10.27;;;6.33;;
52608;SDS011;38503;48.544;12.142;2022-09-09T07:46:49;7.53;;;5.40;;
52608;SDS011;38503;48.544;12.142;2022-09-09T07:49:16;5.53;;;4.90;;
52608;SDS011;38503;48.544;12.142;2022-09-09T07:51:51;6.17;;;5.53;;
52608;SDS011;38503;48.544;12.142;2022-09-09T07:54:19;7.53;;;5.83;;
52608;SDS011;38503;48.544;12.142;2022-09-09T07:56:46;7.37;;;6.40;;
52608;SDS011;38503;48.544;12.142;2022-09-09T07:59:13;4.80;;;4.40;;
52608;SDS011;38503;48.544;12.142;2022-09-09T08:01:41;5.87;;;5.10;;
52608;SDS011;38503;48.544;12.142;2022-09-09T08:04:11;5.77;;;5.17;;
52608;SDS011;38503;48.544;12.142;2022-09-09T08:06:49;5.83;;;5.23;;
52608;SDS011;38503;48.544;12.142;2022-09-09T08:09:19;7.87;;;5.83;;
52608;SDS011;38503;48.544;12.142;2022-09-09T08:11:47;6.00;;;5.40;;
52608;SDS011;38503;48.544;12.142;2022-09-09T08:14:14;7.80;;;5.47;;
52608;SDS011;38503;48.544;12.142;2022-09-09T08:16:45;6.63;;;6.03;;
52608;SDS011;38503;48.544;12.142;2022-09-09T08:19:13;5.80;;;5.23;;
52608;SDS011;38503;48.544;12.142;2022-09-09T08:21:43;5.60;;;5.10;;
52608;SDS011;38503;48.544;12.142;2022-09-09T08:24:11;6.10;;;5.50;;
52608;SDS011;38503;48.544;12.142;2022-09-09T08:26:39;6.53;;;5.67;;
52608;SDS011;38503;48.544;12.142;2022-09-09T08:29:11;7.10;;;5.90;;
52608;SDS011;38503;48.544;12.142;2022-09-09T08:34:08;9.67;;;6.10;;
52608;SDS011;38503;48.544;12.142;2022-09-09T08:36:54;9.17;;;6.47;;
52608;SDS011;38503;48.544;12.142;2022-09-09T08:39:21;6.70;;;6.00;;
52608;SDS011;38503;48.544;12.142;2022-09-09T08:42:05;6.47;;;5.57;;
52608;SDS011;38503;48.544;12.142;2022-09-09T08:47:47;7.83;;;5.47;;
52608;SDS011;38503;48.544;12.142;2022-09-09T08:53:15;6.97;;;5.70;;
52608;SDS011;38503;48.544;12.142;2022-09-09T08:58:26;9.13;;;4.80;;
52608;SDS011;38503;48.544;12.142;2022-09-09T09:04:24;5.23;;;4.70;;
52608;SDS011;38503;48.544;12.142;2022-09-09T09:06:50;9.87;;;8.53;;
52608;SDS011;38503;48.544;12.142;2022-09-09T09:12:16;6.93;;;4.23;;
52608;SDS011;38503;48.544;12.142;2022-09-09T09:14:46;6.87;;;4.77;;
52608;SDS011;38503;48.544;12.142;2022-09-09T09:17:18;5.57;;;3.80;;
52608;SDS011;38503;48.544;12.142;2022-09-09T09:19:50;4.93;;;4.07;;
52608;SDS011;38503;48.544;12.142;2022-09-09T09:22:21;7.03;;;4.17;;
52608;SDS011;38503;48.544;12.142;2022-09-09T09:24:54;4.30;;;3.53;;
52608;SDS011;38503;48.544;12.142;2022-09-09T09:27:31;6.70;;;3.83;;
52608;SDS011;38503;48.544;12.142;2022-09-09T09:30:23;4.90;;;3.73;;
52608;SDS011;38503;48.544;12.142;2022-09-09T09:32:58;7.33;;;3.90;;
52608;SDS011;38503;48.544;12.142;2022-09-09T09:35:34;4.83;;;3.63;;
52608;SDS011;38503;48.544;12.142;2022-09-09T09:38:15;7.07;;;3.60;;
52608;SDS011;38503;48.544;12.142;2022-09-09T09:41:08;4.97;;;3.50;;
52608;SDS011;38503;48.544;12.142;2022-09-09T09:43:36;4.47;;;3.60;;
52608;SDS011;38503;48.544;12.142;2022-09-09T09:46:17;4.77;;;3.73;;
52608;SDS011;38503;48.544;12.142;2022-09-09T09:48:59;4.00;;;3.60;;
52608;SDS011;38503;48.544;12.142;2022-09-09T09:51:34;4.73;;;3.60;;
52608;SDS011;38503;48.544;12.142;2022-09-09T09:54:17;4.80;;;3.40;;
52608;SDS011;38503;48.544;12.142;2022-09-09T09:56:53;6.63;;;3.70;;
52608;SDS011;38503;48.544;12.142;2022-09-09T09:59:21;4.87;;;3.50;;
52608;SDS011;38503;48.544;12.142;2022-09-09T10:04:38;4.67;;;3.30;;
52608;SDS011;38503;48.544;12.142;2022-09-09T10:07:12;3.97;;;3.43;;
52608;SDS011;38503;48.544;12.142;2022-09-09T10:09:44;5.30;;;3.30;;
52608;SDS011;38503;48.544;12.142;2022-09-09T10:25:57;6.10;;;3.37;;
52608;SDS011;38503;48.544;12.142;2022-09-09T10:31:18;5.97;;;4.00;;
52608;SDS011;38503;48.544;12.142;2022-09-09T10:34:12;4.70;;;3.70;;
52608;SDS011;38503;48.544;12.142;2022-09-09T10:36:57;3.47;;;2.80;;
52608;SDS011;38503;48.544;12.142;2022-09-09T10:39:33;7.77;;;3.40;;
52608;SDS011;38503;48.544;12.142;2022-09-09T10:55:51;3.80;;;3.37;;
52608;SDS011;38503;48.544;12.142;2022-09-09T10:58:25;4.13;;;3.50;;
52608;SDS011;38503;48.544;12.142;2022-09-09T11:00:57;5.30;;;3.77;;
52608;SDS011;38503;48.544;12.142;2022-09-09T11:03:33;5.63;;;3.50;;
52608;SDS011;38503;48.544;12.142;2022-09-09T11:06:06;4.57;;;3.80;;
52608;SDS011;38503;48.544;12.142;2022-09-09T11:08:45;6.47;;;3.50;;
52608;SDS011;38503;48.544;12.142;2022-09-09T11:11:37;4.57;;;3.23;;
52608;SDS011;38503;48.544;12.142;2022-09-09T11:17:10;4.37;;;3.40;;
52608;SDS011;38503;48.544;12.142;2022-09-09T11:19:44;6.07;;;3.43;;
52608;SDS011;38503;48.544;12.142;2022-09-09T11:22:21;4.10;;;2.90;;
52608;SDS011;38503;48.544;12.142;2022-09-09T11:27:22;6.73;;;3.10;;
52608;SDS011;38503;48.544;12.142;2022-09-09T11:30:18;4.83;;;2.90;;
52608;SDS011;38503;48.544;12.142;2022-09-09T11:33:16;3.23;;;2.20;;
52608;SDS011;38503;48.544;12.142;2022-09-09T11:35:57;4.30;;;2.80;;
52608;SDS011;38503;48.544;12.142;2022-09-09T11:38:47;5.57;;;2.33;;
52608;SDS011;38503;48.544;12.142;2022-09-09T11:41:18;3.30;;;2.33;;
52608;SDS011;38503;48.544;12.142;2022-09-09T11:43:51;3.63;;;2.43;;
52608;SDS011;38503;48.544;12.142;2022-09-09T11:46:19;3.73;;;2.90;;
52608;SDS011;38503;48.544;12.142;2022-09-09T11:49:00;5.13;;;2.70;;
52608;SDS011;38503;48.544;12.142;2022-09-09T11:51:30;3.20;;;2.73;;
52608;SDS011;38503;48.544;12.142;2022-09-09T11:53:59;3.90;;;2.57;;
52608;SDS011;38503;48.544;12.142;2022-09-09T11:56:29;2.57;;;2.33;;
52608;SDS011;38503;48.544;12.142;2022-09-09T11:59:28;4.63;;;2.50;;
52608;SDS011;38503;48.544;12.142;2022-09-09T12:09:21;2.97;;;2.60;;
52608;SDS011;38503;48.544;12.142;2022-09-09T12:12:20;5.57;;;3.37;;
52608;SDS011;38503;48.544;12.142;2022-09-09T12:14:56;4.87;;;2.80;;
52608;SDS011;38503;48.544;12.142;2022-09-09T12:20:34;2.67;;;2.27;;
52608;SDS011;38503;48.544;12.142;2022-09-09T12:31:42;2.30;;;1.97;;
52608;SDS011;38503;48.544;12.142;2022-09-09T12:34:13;2.90;;;1.90;;
52608;SDS011;38503;48.544;12.142;2022-09-09T12:37:15;3.07;;;2.40;;
52608;SDS011;38503;48.544;12.142;2022-09-09T12:40:00;1.97;;;1.50;;
52608;SDS011;38503;48.544;12.142;2022-09-09T12:42:29;2.93;;;1.73;;
52608;SDS011;38503;48.544;12.142;2022-09-09T12:45:14;2.43;;;1.93;;
52608;SDS011;38503;48.544;12.142;2022-09-09T12:47:53;3.93;;;1.90;;
52608;SDS011;38503;48.544;12.142;2022-09-09T12:50:26;4.77;;;2.07;;
52608;SDS011;38503;48.544;12.142;2022-09-09T12:52:56;2.83;;;2.20;;
52608;SDS011;38503;48.544;12.142;2022-09-09T12:55:38;2.20;;;2.00;;
52608;SDS011;38503;48.544;12.142;2022-09-09T12:58:05;6.60;;;1.83;;
52608;SDS011;38503;48.544;12.142;2022-09-09T13:00:33;2.70;;;2.00;;
52608;SDS011;38503;48.544;12.142;2022-09-09T13:03:02;2.43;;;2.10;;
52608;SDS011;38503;48.544;12.142;2022-09-09T13:05:40;3.70;;;2.77;;
52608;SDS011;38503;48.544;12.142;2022-09-09T13:08:08;4.13;;;2.37;;
52608;SDS011;38503;48.544;12.142;2022-09-09T13:10:43;2.57;;;1.80;;
52608;SDS011;38503;48.544;12.142;2022-09-09T13:13:37;2.13;;;1.70;;
52608;SDS011;38503;48.544;12.142;2022-09-09T13:16:07;2.57;;;1.73;;
52608;SDS011;38503;48.544;12.142;2022-09-09T13:18:46;3.87;;;2.03;;
52608;SDS011;38503;48.544;12.142;2022-09-09T13:21:14;3.30;;;2.20;;
52608;SDS011;38503;48.544;12.142;2022-09-09T13:23:41;2.07;;;1.90;;
52608;SDS011;38503;48.544;12.142;2022-09-09T13:26:20;2.23;;;2.03;;
52608;SDS011;38503;48.544;12.142;2022-09-09T13:28:52;2.50;;;2.10;;
52608;SDS011;38503;48.544;12.142;2022-09-09T13:31:21;5.47;;;1.97;;
52608;SDS011;38503;48.544;12.142;2022-09-09T13:33:56;3.07;;;1.87;;
52608;SDS011;38503;48.544;12.142;2022-09-09T13:36:27;2.37;;;1.80;;
52608;SDS011;38503;48.544;12.142;2022-09-09T13:39:01;4.00;;;1.77;;
52608;SDS011;38503;48.544;12.142;2022-09-09T13:41:33;3.93;;;2.13;;
52608;SDS011;38503;48.544;12.142;2022-09-09T13:44:05;3.10;;;1.70;;
52608;SDS011;38503;48.544;12.142;2022-09-09T13:46:41;2.57;;;1.67;;
52608;SDS011;38503;48.544;12.142;2022-09-09T13:51:39;2.47;;;1.30;;
52608;SDS011;38503;48.544;12.142;2022-09-09T13:54:17;2.83;;;1.60;;
52608;SDS011;38503;48.544;12.142;2022-09-09T13:56:45;3.37;;;1.40;;
52608;SDS011;38503;48.544;12.142;2022-09-09T13:59:13;2.33;;;1.90;;
52608;SDS011;38503;48.544;12.142;2022-09-09T14:01:42;4.13;;;2.43;;
52608;SDS011;38503;48.544;12.142;2022-09-09T14:04:09;3.07;;;2.20;;
52608;SDS011;38503;48.544;12.142;2022-09-09T14:06:37;4.17;;;2.60;;
52608;SDS011;38503;48.544;12.142;2022-09-09T14:09:06;3.50;;;2.40;;
52608;SDS011;38503;48.544;12.142;2022-09-09T14:11:35;3.00;;;2.57;;
52608;SDS011;38503;48.544;12.142;2022-09-09T14:14:06;3.00;;;2.20;;
52608;SDS011;38503;48.544;12.142;2022-09-09T14:16:33;4.17;;;3.13;;
52608;SDS011;38503;48.544;12.142;2022-09-09T14:19:00;3.90;;;2.37;;
52608;SDS011;38503;48.544;12.142;2022-09-09T14:21:27;5.30;;;2.37;;
52608;SDS011;38503;48.544;12.142;2022-09-09T14:23:54;3.37;;;2.27;;
52608;SDS011;38503;48.544;12.142;2022-09-09T14:26:24;2.77;;;1.90;;
52608;SDS011;38503;48.544;12.142;2022-09-09T14:28:52;6.37;;;2.10;;
52608;SDS011;38503;48.544;12.142;2022-09-09T14:31:21;3.83;;;2.30;;
52608;SDS011;38503;48.544;12.142;2022-09-09T14:33:49;3.17;;;2.03;;
52608;SDS011;38503;48.544;12.142;2022-09-09T14:36:17;4.17;;;1.90;;
52608;SDS011;38503;48.544;12.142;2022-09-09T14:38:44;2.23;;;1.80;;
52608;SDS011;38503;48.544;12.142;2022-09-09T14:41:11;2.63;;;1.87;;
52608;SDS011;38503;48.544;12.142;2022-09-09T14:43:41;1.77;;;1.67;;
52608;SDS011;38503;48.544;12.142;2022-09-09T14:46:08;2.00;;;1.67;;
52608;SDS011;38503;48.544;12.142;2022-09-09T14:48:37;2.43;;;1.50;;
52608;SDS011;38503;48.544;12.142;2022-09-09T14:51:07;2.07;;;1.50;;
52608;SDS011;38503;48.544;12.142;2022-09-09T14:53:36;2.60;;;1.53;;
52608;SDS011;38503;48.544;12.142;2022-09-09T14:56:07;2.87;;;1.40;;
52608;SDS011;38503;48.544;12.142;2022-09-09T14:58:38;2.33;;;1.30;;
52608;SDS011;38503;48.544;12.142;2022-09-09T15:01:09;1.97;;;1.50;;
52608;SDS011;38503;48.544;12.142;2022-09-09T15:03:38;2.57;;;1.67;;
52608;SDS011;38503;48.544;12.142;2022-09-09T15:08:39;1.50;;;1.40;;
52608;SDS011;38503;48.544;12.142;2022-09-09T15:11:08;2.30;;;1.70;;
52608;SDS011;38503;48.544;12.142;2022-09-09T15:13:37;2.33;;;1.40;;
52608;SDS011;38503;48.544;12.142;2022-09-09T15:16:12;1.53;;;1.33;;
52608;SDS011;38503;48.544;12.142;2022-09-09T15:18:41;1.77;;;1.30;;
52608;SDS011;38503;48.544;12.142;2022-09-09T15:21:12;2.27;;;1.30;;
52608;SDS011;38503;48.544;12.142;2022-09-09T15:23:43;2.30;;;1.10;;
52608;SDS011;38503;48.544;12.142;2022-09-09T15:26:10;2.37;;;1.20;;
52608;SDS011;38503;48.544;12.142;2022-09-09T15:28:37;2.23;;;1.40;;
52608;SDS011;38503;48.544;12.142;2022-09-09T15:31:05;2.33;;;1.10;;
52608;SDS011;38503;48.544;12.142;2022-09-09T15:33:35;2.83;;;1.17;;
52608;SDS011;38503;48.544;12.142;2022-09-09T15:38:40;1.23;;;1.00;;
52608;SDS011;38503;48.544;12.142;2022-09-09T15:41:07;1.33;;;0.97;;
52608;SDS011;38503;48.544;12.142;2022-09-09T15:43:34;1.37;;;1.10;;
52608;SDS011;38503;48.544;12.142;2022-09-09T15:46:05;3.30;;;1.13;;
52608;SDS011;38503;48.544;12.142;2022-09-09T15:48:44;2.87;;;1.23;;
52608;SDS011;38503;48.544;12.142;2022-09-09T15:51:14;1.40;;;1.10;;
52608;SDS011;38503;48.544;12.142;2022-09-09T15:54:01;1.10;;;0.97;;
52608;SDS011;38503;48.544;12.142;2022-09-09T15:56:28;0.80;;;0.80;;
52608;SDS011;38503;48.544;12.142;2022-09-09T15:59:02;1.37;;;1.10;;
52608;SDS011;38503;48.544;12.142;2022-09-09T16:01:29;1.77;;;1.10;;
52608;SDS011;38503;48.544;12.142;2022-09-09T16:03:58;2.27;;;1.27;;
52608;SDS011;38503;48.544;12.142;2022-09-09T16:06:26;1.40;;;1.00;;
52608;SDS011;38503;48.544;12.142;2022-09-09T16:08:55;1.40;;;1.13;;
52608;SDS011;38503;48.544;12.142;2022-09-09T16:11:29;3.60;;;1.30;;
52608;SDS011;38503;48.544;12.142;2022-09-09T16:13:58;2.37;;;1.70;;
52608;SDS011;38503;48.544;12.142;2022-09-09T16:16:27;2.93;;;1.30;;
52608;SDS011;38503;48.544;12.142;2022-09-09T16:18:56;1.37;;;1.03;;
52608;SDS011;38503;48.544;12.142;2022-09-09T16:21:29;1.33;;;1.10;;
52608;SDS011;38503;48.544;12.142;2022-09-09T16:24:03;1.60;;;1.30;;
52608;SDS011;38503;48.544;12.142;2022-09-09T16:26:32;4.10;;;1.33;;
52608;SDS011;38503;48.544;12.142;2022-09-09T16:29:01;3.47;;;1.50;;
52608;SDS011;38503;48.544;12.142;2022-09-09T16:31:29;1.80;;;1.13;;
52608;SDS011;38503;48.544;12.142;2022-09-09T16:33:58;1.67;;;1.30;;
52608;SDS011;38503;48.544;12.142;2022-09-09T16:36:27;1.13;;;1.03;;
52608;SDS011;38503;48.544;12.142;2022-09-09T16:39:00;2.03;;;1.30;;
52608;SDS011;38503;48.544;12.142;2022-09-09T16:41:38;1.97;;;1.30;;
52608;SDS011;38503;48.544;12.142;2022-09-09T16:44:08;3.30;;;1.30;;
52608;SDS011;38503;48.544;12.142;2022-09-09T16:46:37;2.40;;;1.70;;
52608;SDS011;38503;48.544;12.142;2022-09-09T16:49:09;2.17;;;1.47;;
52608;SDS011;38503;48.544;12.142;2022-09-09T16:51:57;2.53;;;1.43;;
52608;SDS011;38503;48.544;12.142;2022-09-09T16:54:26;1.70;;;1.30;;
52608;SDS011;38503;48.544;12.142;2022-09-09T16:56:53;1.50;;;1.17;;
52608;SDS011;38503;48.544;12.142;2022-09-09T16:59:21;3.50;;;1.70;;
52608;SDS011;38503;48.544;12.142;2022-09-09T17:01:50;1.50;;;1.30;;
52608;SDS011;38503;48.544;12.142;2022-09-09T17:04:19;2.13;;;1.37;;
52608;SDS011;38503;48.544;12.142;2022-09-09T17:06:52;1.63;;;1.27;;
52608;SDS011;38503;48.544;12.142;2022-09-09T17:09:20;2.47;;;1.40;;
52608;SDS011;38503;48.544;12.142;2022-09-09T17:11:49;1.87;;;1.50;;